»·PEaware :: N427LJ KPDX-KAST

N427LJ :: KPDX-KAST

FLIGHT INFORMATION

Flight Status: Arrived
Operator: Privately registered:
United States
More flights under this callsign
Pilot: Anonymous 27948 (27948)
Aircraft: CESSNA 172 SKYHAWK
(C172)
More flights by this aircraft type
Origin: KPDX Portland Intl
United States
Destination: KAST Astoria Regl
United States
More flights between these airports :: More routes between these airports
Route: BTG V112 AST
File this flight plan on PilotEdge
Remarks:
Altitude:
(Current/Filed)
8,000ft
Speed:
(Current/Filed)
120kts
Departed: 07-Jun-20 12:16 PM
Arrived: 07-Jun-20 12:58 PM
Distance/Time
Traveled:
64nm/0:42
Distance/Time
To Go:
Arrived

Flight Plot

Page will automatically refresh every two minutes.

Flight plan parsing failed; only flown route is shown


Map Options




Map Legend


Flown Route
Filed Route
Departure Airport
Arrival Airport
Navaid (VOR, NDB)
Fix

Horizontal Profiles

Position Reports

Time Latitude Longitude Heading Altitude Ground
Speed
07-Jun-20 11:56 45.587425 -122.583532 208 20ft 0kts
07-Jun-20 11:57 45.587425 -122.583532 208 20ft 0kts
07-Jun-20 11:58 45.587425 -122.583532 208 20ft 0kts
07-Jun-20 11:59 45.587425 -122.583532 208 20ft 0kts
07-Jun-20 12:00 45.587425 -122.583532 208 20ft 0kts
07-Jun-20 12:01 45.587425 -122.583532 208 20ft 0kts
07-Jun-20 12:02 45.587425 -122.583532 208 20ft 0kts
07-Jun-20 12:03 45.587425 -122.583532 208 20ft 0kts
07-Jun-20 12:04 45.587425 -122.583532 208 20ft 0kts
07-Jun-20 12:05 45.587425 -122.583532 208 20ft 0kts
07-Jun-20 12:06 45.587425 -122.583532 208 20ft 0kts
07-Jun-20 12:07 45.587425 -122.583532 208 20ft 0kts
07-Jun-20 12:08 45.587425 -122.583532 208 20ft 0kts
07-Jun-20 12:09 45.587484 -122.583560 6 20ft 3kts
07-Jun-20 12:10 45.587245 -122.579469 120 20ft 20kts
07-Jun-20 12:11 45.583856 -122.570843 117 20ft 27kts
07-Jun-20 12:12 45.582670 -122.567836 91 20ft 0kts
07-Jun-20 12:13 45.582670 -122.567836 91 20ft 0kts
07-Jun-20 12:14 45.582712 -122.567517 66 20ft 0kts
07-Jun-20 12:15 45.587316 -122.576297 300 219ft 76kts
07-Jun-20 12:16 45.597328 -122.602521 298 1285ft 77kts
07-Jun-20 12:17 45.607516 -122.629833 298 2297ft 79kts
07-Jun-20 12:18 45.623676 -122.642327 23 3229ft 80kts
07-Jun-20 12:19 45.644541 -122.631044 18 4120ft 81kts
07-Jun-20 12:21 45.666192 -122.621745 15 4956ft 82kts
07-Jun-20 12:22 45.688377 -122.613241 14 5744ft 83kts
07-Jun-20 12:23 45.710854 -122.605041 14 6483ft 84kts
07-Jun-20 12:24 45.733633 -122.596895 14 7178ft 85kts
07-Jun-20 12:25 45.751564 -122.611915 301 7817ft 86kts
07-Jun-20 12:26 45.765209 -122.647440 297 7890ft 109kts
07-Jun-20 12:27 45.778627 -122.686235 295 7890ft 109kts
07-Jun-20 12:28 45.792809 -122.728940 295 7890ft 121kts
07-Jun-20 12:29 45.807243 -122.772891 294 7890ft 122kts
07-Jun-20 12:30 45.821683 -122.817065 294 7890ft 122kts
07-Jun-20 12:31 45.836054 -122.861133 294 7890ft 122kts
07-Jun-20 12:32 45.850602 -122.905274 300 7889ft 122kts
07-Jun-20 12:33 45.871113 -122.947502 305 7417ft 130kts
07-Jun-20 12:34 45.892195 -122.990413 305 6674ft 132kts
07-Jun-20 12:35 45.913316 -123.033392 305 5877ft 132kts
07-Jun-20 12:35 45.931029 -123.069431 305 5209ft 132kts
07-Jun-20 12:37 45.956031 -123.120289 305 4267ft 132kts
07-Jun-20 12:38 45.976335 -123.161608 305 3890ft 118kts
07-Jun-20 12:38 45.992107 -123.193732 305 3889ft 115kts
07-Jun-20 12:40 46.013471 -123.237244 305 3890ft 113kts
07-Jun-20 12:41 46.031625 -123.274221 305 3890ft 113kts
07-Jun-20 12:41 46.046812 -123.305152 305 3890ft 113kts
07-Jun-20 12:42 46.064991 -123.342173 305 3890ft 113kts
07-Jun-20 12:44 46.085958 -123.384868 305 3888ft 107kts
07-Jun-20 12:44 46.100115 -123.413711 305 3890ft 105kts
07-Jun-20 12:45 46.117285 -123.448687 305 3890ft 107kts
07-Jun-20 12:46 46.129226 -123.487869 285 3890ft 107kts
07-Jun-20 12:47 46.134717 -123.529459 278 3896ft 101kts
07-Jun-20 12:48 46.137968 -123.567904 276 3890ft 95kts
07-Jun-20 12:49 46.140759 -123.606203 276 3595ft 95kts
07-Jun-20 12:50 46.143412 -123.644437 276 3120ft 96kts
07-Jun-20 12:51 46.145898 -123.683219 275 2602ft 95kts
07-Jun-20 12:52 46.148383 -123.719760 275 2102ft 94kts
07-Jun-20 12:53 46.150960 -123.757655 275 1582ft 94kts
07-Jun-20 12:54 46.153483 -123.794934 275 1069ft 87kts
07-Jun-20 12:55 46.155466 -123.824687 275 671ft 71kts
07-Jun-20 12:56 46.157382 -123.853219 275 271ft 68kts
07-Jun-20 12:57 46.158826 -123.876169 248 12ft 25kts
07-Jun-20 12:58 46.158207 -123.878371 244 15ft 6kts
07-Jun-20 12:59 46.156417 -123.881683 86 20ft 1kts

Navigation Log

Ident Type
Flight plan parsing failed, navigation log unavailable